Portada
METAR-TAF:

METAR-TAF

Aeroports :

Jersey,

latitud: 49-13N, longitud: 002-12W, altitud: 84 m

Observació

L'informe es va fer fa 38 minuts, a les 20:20 UTC
Vent 5 kt del Nord/Nord-Est
Temperatura 16°C
Humitat 82%
Pressió 1018 hPa
Visibilitat 10 km o més

METAR: EGJJ 162020Z AUTO 02005KT 9999 NCD 16/13 Q1018

Hora: 21:58 (20:58 UTC)

Pronòstic

L'informe es va fer fa 1 hora i 1 minuts, a les 19:57 UTC
Pronòstic vàlid del 16 a les 21 UTC al 17 a les 06 UTC
Vent 4 kt del Nord/Nord-Est
Visibilitat 10 km o més
sense núvols per sota de 1500 mi sense presència de cumulonimbus.
Probabilitat 40% :
Temporalment
l' 17 a les 00 UTC al 17 a les 06 UTC
Visibilitat: 9000 m
Probabilitat 30% :
Temporalment
l' 17 a les 03 UTC al 17 a les 06 UTC
Visibilitat: 4000 m
Cel ennuvolat a una alçada de 200 ft
boirina

TAF: EGJJ 161957Z 1621/1706 02004KT CAVOK PROB40 TEMPO 1700/1706 9000 PROB30 TEMPO 1703/1706 4000 BR BKN002

Observacions i pronòstics meteorològics de més de 4000 aeroports (METAR i TAF).

Les estacions disponibles són els punts grocs i vermells al mapa.

Posi el ratolí al punt desitjat per veure el nom de l'estació.

Feu clic per veure les observacions i els pronòstics meteorològics.

Per canviar el mapa: feu clic els botons verds amb una creu de color negre per apropar; al botó verd amb un guió per allunyar la imatge; o en les fletxes verdes per a mapes adjacents.


METAR-TAF: